Portland, Missouri
Current Conditions -  °F | °C
As of 5:53 PM on Wednesday 28 Jan 2015 (Local Time) from KJEF Reporting Station
Clear Clear  
Wind Chill: 56°   Ceiling: Unl
Heat Index: 56°   Visibility: 10mi
Dew Point: 35°   Wind: 14mph
Humidity: 45%   Direction: 140°SE
Pressure: 29.83"   Gusts: NA
Location:  38.71°N, 91.72°W
Report Text: KJEF 282353Z 14012KT 10SM CLR 13/02 A2983 RMK AO2 SLP095 T01330017 10167 20106 58021
Loading
Personal Weather Stations






























Interactive Weather Map New forecast layout! Learn more

10-Day Weather Forecast

Advertisements
Track Severe Weather on mobile